• Join FlightAware (Why Join?)
  • Login
  • US Flag 
06:49PM EDT


 

Airport Tracker/Info


-or-


 

Live Flight TrackerFlight Track Log ✈ QXE2633 ✈ 26-Aug-2013 ✈ KPDX - KSMF

Flight Track Log - Related Links

Times and Time Zones

All times are in EDT time to prevent confusion due to time zone crossing. See the QXE2633 flight status page for this flight to view local times or setup timezone preferences in your user account.

Time Position Orientation Groundspeed Altitude Reporting Facility
EDT Latitude Longitude Course Direction KTS MPH feet Rate Location/Type
05:42PM 45.4156 -122.5687 173° South  Level Estimated
05:43PM 45.3291 -122.5547 174° South  Level Estimated
05:44PM 45.2425 -122.5407 174° South  Level Estimated
05:45PM 45.1560 -122.5267 174° South  Level Estimated
05:46PM 45.0694 -122.5128 174° South  Level Estimated
05:47PM 44.9829 -122.4990 174° South  Level Estimated
05:48PM 44.8963 -122.4852 174° South  Level Estimated
05:49PM 44.8097 -122.4714 174° South  Level Estimated
05:50PM 44.7232 -122.4577 174° South  Level Estimated
05:51PM 44.6366 -122.4440 174° South  Level Estimated
05:52PM 44.5511 -122.4305 174° South  Level Estimated
05:53PM 44.4656 -122.4171 174° South  Level Estimated
05:54PM 44.3801 -122.4037 174° South  Level Estimated
05:55PM 44.2946 -122.3903 174° South  Level Estimated
05:56PM 44.2091 -122.3770 174° South  Level Estimated
05:57PM 44.1236 -122.3637 174° South  Level Estimated
05:58PM 44.0381 -122.3505 174° South  Level Estimated
05:59PM 43.9526 -122.3373 174° South  Level Estimated
06:00PM 43.8671 -122.3241 174° South  Level Estimated
06:01PM 43.7816 -122.3110 174° South  Level Estimated
06:02PM 43.6961 -122.2979 174° South  Level Estimated
06:03PM 43.6106 -122.2848 174° South  Level Estimated
06:04PM 43.5251 -122.2718 174° South  Level Estimated
06:05PM 43.4395 -122.2588 174° South  Level Estimated
06:06PM 43.3540 -122.2459 174° South  Level Estimated
06:07PM 43.2685 -122.2330 174° South  Level Estimated
06:08PM 43.1830 -122.2201 174° South  Level Estimated
06:09PM 43.0975 -122.2073 174° South  Level Estimated
06:10PM 43.0120 -122.1945 174° South  Level Estimated
06:11PM 42.9264 -122.1817 174° South  Level Estimated
06:12PM 42.8409 -122.1690 174° South  Level Estimated
06:13PM 42.7554 -122.1563 174° South  Level Estimated
06:14PM 42.6698 -122.1436 174° South  Level Estimated
06:15PM 42.5843 -122.1310 174° South  Level Estimated
06:16PM 42.4988 -122.1184 174° South  Level Estimated
06:17PM 42.4133 -122.1058 174° South  Level Estimated
06:18PM 42.3277 -122.0933 174° South  Level Estimated
06:19PM 42.2524 -122.0823 174° South  Level Estimated
06:20PM 42.1771 -122.0713 174° South  Level Estimated
06:21PM 42.1018 -122.0604 174° South  Level Estimated
06:22PM 42.0265 -122.0495 174° South  Level Estimated
06:23PM 41.9512 -122.0386 174° South  Level Estimated
06:24PM 41.8727 -122.0273 174° South  Level Estimated
06:25PM 41.7942 -122.0160 174° South  Level Estimated
06:26PM 41.7158 -122.0047 174° South  Level Estimated
06:27PM 41.6373 -121.9935 174° South  Level Estimated
06:28PM 41.5588 -121.9822 174° South  Level Estimated
06:29PM 41.4804 -121.9711 174° South  Level Estimated
06:30PM 41.4019 -121.9599 174° South  Level Estimated
06:31PM 41.3234 -121.9488 174° South  Level Estimated
06:32PM 41.2449 -121.9377 174° South  Level Estimated
06:33PM 41.1664 -121.9266 174° South  Level Estimated
06:34PM 41.0880 -121.9156 174° South  Level Estimated
06:35PM 41.0095 -121.9045 174° South  Level Estimated
06:36PM 40.9310 -121.8935 174° South  Level Estimated
06:37PM 40.8525 -121.8826 174° South  Level Estimated
06:38PM 40.7740 -121.8716 174° South  Level Estimated
06:39PM 40.6956 -121.8607 174° South  Level Estimated
06:40PM 40.6171 -121.8498 174° South  Level Estimated
06:41PM 40.5386 -121.8389 174° South  Level Estimated
06:42PM 40.4601 -121.8281 174° South  Level Estimated
06:43PM 40.3816 -121.8173 174° South  Level Estimated
06:44PM 40.3031 -121.8065 174° South  Level Estimated
06:45PM 40.2270 -121.7960 174° South  Level Estimated
06:46PM 40.1508 -121.7856 174° South  Level Estimated
06:47PM 40.0746 -121.7752 174° South  Level Estimated
06:48PM 39.9985 -121.7648 174° South  Level Estimated
06:49PM 39.9223 -121.7545 174° South  Level Estimated
06:50PM 39.8461 -121.7441 174° South  Level Estimated
06:51PM 39.7700 -121.7338 174° South  Level Estimated
06:52PM 39.6938 -121.7235 174° South  Level Estimated
06:53PM 39.6176 -121.7133 174° South  Level Estimated
06:54PM 39.5415 -121.7030 174° South  Level Estimated
06:55PM 39.4653 -121.6928 174° South  Level Estimated
06:56PM 39.3891 -121.6826 174° South  Level Estimated
06:57PM 39.3129 -121.6724 174° South  Level Estimated
06:58PM 39.2368 -121.6623 174° South  Level Estimated
06:59PM 39.1606 -121.6522 174° South  Level Estimated
07:00PM 39.0844 -121.6421 174° South  Level Estimated
07:01PM 39.0082 -121.6320 174° South  Level Estimated
07:02PM 38.9321 -121.6219 174° South  Level Estimated
07:03PM 38.8559 -121.6119 174° South  Level Estimated
07:04PM 38.7797 -121.6018 174° South  Level Estimated
07:05PM 38.7035 -121.5918 174° South  Level Estimated
07:06PM 38.6954 -121.5908 174° South  Level Estimated
07:07PM 38.6954 -121.5908 21° North  Level Estimated
07:08PM 38.6954 -121.5908 21° North  Level Estimated
07:09PM 38.6954 -121.5908 21° North  Level Estimated
07:10PM 38.6954 -121.5908 21° North  Level Estimated
07:11PM 38.6954 -121.5908 21° North  Level Estimated
07:12PM 38.6954 -121.5908 21° North  Level Estimated
07:13PM 38.6954 -121.5908 21° North  Level Estimated
07:14PM 38.6954 -121.5908 21° North  Level Estimated
07:15PM 38.6954 -121.5908 21° North  Level Estimated
07:16PM 38.6954 -121.5908 21° North  Level Estimated
07:17PM 38.6954 -121.5908 21° North  Level Estimated